createdAt,value
2022-12-12T00:01:46.861Z,14.52
2022-12-12T00:04:13.728Z,8.40
2022-12-12T00:06:40.306Z,12.73
2022-12-12T00:09:06.892Z,12.13
2022-12-12T00:11:33.607Z,12.07
2022-12-12T00:14:00.214Z,11.38
2022-12-12T00:16:26.868Z,13.35
2022-12-12T00:18:53.959Z,11.02
2022-12-12T00:21:24.097Z,12.95
2022-12-12T00:23:51.238Z,10.35
2022-12-12T00:26:24.571Z,11.88
2022-12-12T00:28:52.171Z,11.85
2022-12-12T00:31:19.200Z,11.90
2022-12-12T00:33:48.126Z,12.50
2022-12-12T00:36:19.675Z,13.25
2022-12-12T00:38:46.420Z,12.00
2022-12-12T00:41:13.087Z,12.15
2022-12-12T00:43:39.795Z,12.20
2022-12-12T00:46:06.826Z,13.20
2022-12-12T00:48:33.571Z,12.02
2022-12-12T00:51:09.611Z,12.52
2022-12-12T00:53:38.292Z,11.93
2022-12-12T00:56:05.429Z,13.05
2022-12-12T00:58:32.861Z,12.75
2022-12-12T01:01:06.600Z,12.98
2022-12-12T01:03:34.402Z,12.55
2022-12-12T01:06:00.972Z,12.57
2022-12-12T01:08:28.292Z,14.05
2022-12-12T01:10:55.493Z,12.95
2022-12-12T01:13:22.167Z,12.35
2022-12-12T01:15:49.008Z,11.80
2022-12-12T01:18:16.754Z,11.35
2022-12-12T01:20:43.554Z,11.93
2022-12-12T01:23:11.062Z,11.38
2022-12-12T01:25:37.681Z,9.07
2022-12-12T01:28:05.012Z,11.32
2022-12-12T01:30:32.498Z,12.50
2022-12-12T01:32:59.124Z,13.60
2022-12-12T01:35:26.357Z,13.23
2022-12-12T01:37:54.342Z,12.10
2022-12-12T01:40:24.808Z,12.35
2022-12-12T01:42:52.452Z,11.30
2022-12-12T01:45:56.539Z,11.38
2022-12-12T01:48:29.220Z,11.65
2022-12-12T01:50:59.644Z,11.55
2022-12-12T01:53:29.727Z,12.55
2022-12-12T01:55:57.533Z,12.88
2022-12-12T01:58:25.830Z,11.63
2022-12-12T02:00:52.524Z,13.15
2022-12-12T02:03:19.175Z,12.77
2022-12-12T02:05:55.221Z,11.68
2022-12-12T02:08:23.372Z,11.63
2022-12-12T02:10:50.593Z,12.40
2022-12-12T02:13:21.709Z,12.50
2022-12-12T02:15:54.354Z,12.27
2022-12-12T02:18:28.252Z,11.57
2022-12-12T02:21:18.404Z,11.85
2022-12-12T02:23:53.646Z,11.85
2022-12-12T02:26:49.201Z,12.90
2022-12-12T02:29:38.963Z,11.07
2022-12-12T02:32:10.071Z,11.20
2022-12-12T02:35:00.761Z,12.13
2022-12-12T02:37:43.768Z,11.43
2022-12-12T02:40:30.924Z,12.32
2022-12-12T02:43:13.084Z,11.73
2022-12-12T02:45:51.348Z,10.93
2022-12-12T02:48:28.289Z,11.57
2022-12-12T02:50:59.051Z,11.80
2022-12-12T02:53:25.687Z,12.55
2022-12-12T02:56:07.382Z,12.60
2022-12-12T02:58:37.846Z,12.38
2022-12-12T03:01:13.216Z,11.60
2022-12-12T03:04:37.453Z,11.75
2022-12-12T03:07:44.393Z,11.20
2022-12-12T03:10:29.300Z,12.20
2022-12-12T03:13:08.569Z,11.52
2022-12-12T03:15:44.732Z,10.95
2022-12-12T03:20:59.287Z,10.85
2022-12-12T03:23:32.489Z,11.32
2022-12-12T03:26:27.633Z,11.32
2022-12-12T03:29:17.672Z,11.27
2022-12-12T03:31:53.327Z,11.05
2022-12-12T03:34:26.131Z,11.25
2022-12-12T03:37:08.028Z,10.95
2022-12-12T03:39:42.160Z,10.85
2022-12-12T03:42:15.469Z,11.30
2022-12-12T03:44:57.843Z,10.57
2022-12-12T03:47:35.532Z,10.38
2022-12-12T03:50:16.208Z,11.25
2022-12-12T03:52:50.201Z,10.93
2022-12-12T03:55:19.705Z,12.23
2022-12-12T03:57:54.188Z,11.65
2022-12-12T04:00:20.929Z,10.85
2022-12-12T04:02:56.306Z,11.32
2022-12-12T04:05:40.120Z,10.77
2022-12-12T04:08:15.370Z,11.43
2022-12-12T04:11:10.736Z,11.70
2022-12-12T04:13:55.630Z,12.18
2022-12-12T04:16:29.975Z,11.15
2022-12-12T04:19:01.071Z,11.00
2022-12-12T04:21:59.495Z,11.73
2022-12-12T04:24:35.434Z,11.18
2022-12-12T04:27:08.384Z,10.00
2022-12-12T04:29:46.857Z,9.55
2022-12-12T04:32:16.850Z,10.70
2022-12-12T04:34:50.122Z,11.45
2022-12-12T04:37:22.877Z,9.80
2022-12-12T04:39:52.845Z,11.23
2022-12-12T04:42:23.097Z,11.10
2022-12-12T04:44:54.407Z,9.63
2022-12-12T04:47:22.620Z,11.13
2022-12-12T04:49:51.608Z,10.65
2022-12-12T04:52:21.054Z,10.43
2022-12-12T04:54:50.556Z,11.18
2022-12-12T04:57:25.267Z,12.20
2022-12-12T04:59:52.252Z,11.15
2022-12-12T05:02:30.832Z,10.68
2022-12-12T05:05:02.321Z,10.95
2022-12-12T05:07:41.322Z,11.57
2022-12-12T05:10:14.847Z,10.00
2022-12-12T05:12:50.540Z,10.65
2022-12-12T05:15:19.772Z,9.80
2022-12-12T05:17:49.401Z,12.50
2022-12-12T05:20:16.178Z,11.07
2022-12-12T05:22:42.755Z,11.10
2022-12-12T05:25:10.544Z,10.77
2022-12-12T05:27:37.301Z,12.95
2022-12-12T05:30:04.618Z,11.77
2022-12-12T05:32:31.207Z,10.88
2022-12-12T05:34:57.776Z,11.63
2022-12-12T05:37:24.346Z,10.75
2022-12-12T05:39:50.893Z,10.77
2022-12-12T05:42:17.478Z,10.45
2022-12-12T05:44:44.189Z,10.55
2022-12-12T05:47:10.780Z,10.90
2022-12-12T05:49:37.368Z,10.48
2022-12-12T05:52:04.090Z,10.55
2022-12-12T05:54:30.870Z,9.88
2022-12-12T05:56:57.560Z,9.27
2022-12-12T05:59:24.179Z,10.65
2022-12-12T06:01:50.728Z,9.70
2022-12-12T06:04:17.611Z,9.88
2022-12-12T06:06:44.312Z,10.93
2022-12-12T06:09:10.869Z,10.18
2022-12-12T06:11:37.438Z,9.90
2022-12-12T06:14:04.585Z,9.90
2022-12-12T06:16:31.192Z,9.55
2022-12-12T06:18:57.819Z,10.02
2022-12-12T06:21:24.613Z,9.50
2022-12-12T06:23:51.514Z,9.52
2022-12-12T06:26:18.680Z,9.52
2022-12-12T06:28:45.532Z,10.48
2022-12-12T06:31:12.889Z,8.80
2022-12-12T06:33:40.919Z,9.52
2022-12-12T06:36:09.118Z,10.10
2022-12-12T06:38:36.248Z,10.20
2022-12-12T06:41:14.767Z,9.45
2022-12-12T06:43:42.204Z,9.93
2022-12-12T06:46:14.331Z,9.57
2022-12-12T06:48:40.968Z,9.43
2022-12-12T06:51:09.026Z,9.20
2022-12-12T06:53:36.517Z,10.40
2022-12-12T06:56:21.847Z,9.43
2022-12-12T06:58:48.913Z,9.35
2022-12-12T07:01:19.302Z,11.55
2022-12-12T07:03:46.585Z,9.77
2022-12-12T07:06:13.627Z,8.60
2022-12-12T07:08:40.206Z,9.57
2022-12-12T07:11:19.135Z,10.05
2022-12-12T07:13:45.791Z,8.98
2022-12-12T07:16:12.531Z,10.82
2022-12-12T07:18:39.650Z,10.05
2022-12-12T07:21:07.899Z,10.43
2022-12-12T07:23:34.954Z,9.60
2022-12-12T07:26:11.971Z,8.88
2022-12-12T07:28:38.545Z,9.10
2022-12-12T07:31:09.895Z,10.30
2022-12-12T07:33:43.746Z,9.55
2022-12-12T07:36:12.012Z,10.15
2022-12-12T07:38:38.744Z,9.68
2022-12-12T07:41:08.560Z,9.90
2022-12-12T07:43:41.469Z,9.85
2022-12-12T07:46:14.677Z,8.82
2022-12-12T07:48:41.456Z,9.88
2022-12-12T07:51:08.037Z,9.32
2022-12-12T07:53:34.644Z,10.13
2022-12-12T07:56:05.089Z,10.68
2022-12-12T07:58:31.753Z,9.73
2022-12-12T08:00:58.434Z,9.73
2022-12-12T08:03:25.467Z,10.75
2022-12-12T08:05:52.085Z,10.18
2022-12-12T08:08:18.904Z,8.88
2022-12-12T08:10:45.508Z,10.23
2022-12-12T08:13:12.079Z,9.57
2022-12-12T08:15:38.844Z,8.95
2022-12-12T08:18:05.480Z,8.95
2022-12-12T08:20:32.123Z,8.85
2022-12-12T08:23:00.621Z,7.95
2022-12-12T08:25:27.210Z,8.30
2022-12-12T08:27:53.812Z,8.63
2022-12-12T08:30:20.459Z,7.88
2022-12-12T08:32:47.015Z,9.40
2022-12-12T08:35:14.026Z,9.38
2022-12-12T08:37:40.908Z,7.68
2022-12-12T08:40:08.104Z,8.20
2022-12-12T08:42:34.722Z,9.27
2022-12-12T08:45:01.280Z,8.40
2022-12-12T08:47:27.880Z,8.50
2022-12-12T08:49:54.490Z,8.65
2022-12-12T08:52:21.156Z,9.07
2022-12-12T08:54:47.878Z,8.68
2022-12-12T08:57:14.542Z,8.50
2022-12-12T08:59:41.136Z,9.20
2022-12-12T09:02:12.013Z,8.65
2022-12-12T09:04:38.857Z,8.15
2022-12-12T09:07:08.683Z,8.43
2022-12-12T09:09:35.472Z,9.15
2022-12-12T09:12:02.280Z,8.30
2022-12-12T09:14:28.835Z,8.43
2022-12-12T09:16:55.576Z,7.82
2022-12-12T09:19:22.205Z,8.25
2022-12-12T09:21:48.800Z,8.80
2022-12-12T09:24:15.373Z,8.15
2022-12-12T09:26:42.361Z,8.90
2022-12-12T09:29:10.755Z,8.30
2022-12-12T09:31:37.483Z,8.48
2022-12-12T09:34:04.095Z,9.10
2022-12-12T09:36:30.774Z,9.00
2022-12-12T09:38:57.439Z,9.60
2022-12-12T09:41:30.722Z,7.82
2022-12-12T09:44:08.426Z,8.40
2022-12-12T09:46:37.793Z,8.50
2022-12-12T09:49:25.741Z,10.25
2022-12-12T09:51:53.149Z,9.15
2022-12-12T09:54:22.799Z,9.77
2022-12-12T09:57:08.027Z,8.40
2022-12-12T09:59:56.381Z,9.45
2022-12-12T10:02:51.042Z,8.13
2022-12-12T10:05:32.477Z,8.38
2022-12-12T10:08:13.983Z,8.02
2022-12-12T10:10:44.335Z,8.32
2022-12-12T10:13:17.059Z,8.40
2022-12-12T10:15:51.740Z,8.68
2022-12-12T10:18:30.593Z,8.57
2022-12-12T10:21:01.553Z,8.30
2022-12-12T10:23:40.178Z,8.60
2022-12-12T10:26:24.411Z,7.90
2022-12-12T10:28:59.113Z,9.13
2022-12-12T10:31:25.851Z,7.15
2022-12-12T10:33:55.316Z,8.70
2022-12-12T10:36:48.086Z,9.52
2022-12-12T10:39:25.210Z,9.00
2022-12-12T10:41:51.691Z,9.38
2022-12-12T10:44:22.293Z,9.00
2022-12-12T10:47:00.462Z,8.00
2022-12-12T10:49:27.238Z,8.57
2022-12-12T10:51:55.955Z,8.35
2022-12-12T10:54:26.422Z,8.32
2022-12-12T10:57:24.848Z,8.77
2022-12-12T10:59:54.678Z,8.52
2022-12-12T11:02:29.114Z,8.52
2022-12-12T11:05:06.586Z,8.27
2022-12-12T11:07:39.454Z,7.75
2022-12-12T11:10:35.198Z,8.65
2022-12-12T11:13:22.005Z,7.47
2022-12-12T11:16:13.124Z,8.00
2022-12-12T11:18:41.490Z,8.60
2022-12-12T11:21:11.679Z,7.72
2022-12-12T11:23:41.684Z,7.25
2022-12-12T11:26:14.135Z,7.13
2022-12-12T11:28:42.226Z,8.13
2022-12-12T11:31:14.353Z,7.97
2022-12-12T11:33:48.420Z,7.65
2022-12-12T11:36:23.308Z,7.18
2022-12-12T11:38:54.348Z,6.90
2022-12-12T11:41:21.023Z,7.07
2022-12-12T11:43:47.553Z,7.13
2022-12-12T11:46:14.121Z,7.47
2022-12-12T11:48:46.791Z,7.10
2022-12-12T11:51:29.967Z,7.20
2022-12-12T11:53:56.850Z,7.63
2022-12-12T11:56:37.906Z,6.72
2022-12-12T11:59:39.623Z,6.80
2022-12-12T12:02:41.371Z,7.13
2022-12-12T12:05:17.082Z,7.05
2022-12-12T12:07:52.698Z,7.38
2022-12-12T12:10:47.745Z,7.90
2022-12-12T12:13:51.913Z,7.43
2022-12-12T12:16:36.174Z,7.10
2022-12-12T12:19:29.813Z,7.38
2022-12-12T12:22:03.900Z,7.28
2022-12-12T12:25:06.435Z,7.40
2022-12-12T12:27:50.833Z,8.43
2022-12-12T12:30:24.175Z,10.27
2022-12-12T12:33:09.130Z,7.53
2022-12-12T12:35:54.380Z,7.18
2022-12-12T12:38:37.331Z,5.40
2022-12-12T12:41:14.958Z,6.75
2022-12-12T12:43:53.923Z,6.25
2022-12-12T12:46:35.031Z,5.32
2022-12-12T12:49:15.604Z,5.00
2022-12-12T12:51:55.939Z,5.72
2022-12-12T12:54:26.076Z,5.22
2022-12-12T12:57:08.008Z,5.03
2022-12-12T12:59:38.787Z,5.25
2022-12-12T13:02:26.721Z,5.00
2022-12-12T13:05:14.980Z,4.90
2022-12-12T13:08:16.011Z,4.90
2022-12-12T13:10:47.713Z,4.80
2022-12-12T13:13:43.253Z,4.43
2022-12-12T13:16:15.866Z,5.07
2022-12-12T13:18:46.115Z,5.20
2022-12-12T13:21:39.269Z,5.03
2022-12-12T13:24:29.511Z,4.60
2022-12-12T13:27:31.824Z,5.10
2022-12-12T13:30:23.099Z,4.90
2022-12-12T13:33:14.224Z,4.20
2022-12-12T13:35:46.166Z,4.57
2022-12-12T13:38:33.490Z,5.07
2022-12-12T13:41:02.809Z,4.80
2022-12-12T13:43:38.593Z,4.95
2022-12-12T13:46:23.578Z,4.93
2022-12-12T13:49:27.459Z,4.85
2022-12-12T13:52:24.050Z,4.22
2022-12-12T13:54:54.631Z,5.00
2022-12-12T13:57:24.510Z,4.70
2022-12-12T14:00:19.369Z,5.53
2022-12-12T14:02:59.511Z,4.65
2022-12-12T14:05:41.380Z,4.88
2022-12-12T14:08:11.073Z,5.30
2022-12-12T14:10:54.193Z,5.00
2022-12-12T14:13:26.927Z,4.43
2022-12-12T14:16:07.938Z,5.18
2022-12-12T14:18:59.627Z,4.30
2022-12-12T14:21:43.516Z,4.82
2022-12-12T14:24:36.186Z,5.10
2022-12-12T14:27:07.501Z,4.50
2022-12-12T14:29:42.082Z,4.88
2022-12-12T14:32:11.648Z,5.07
2022-12-12T14:35:16.006Z,5.13
2022-12-12T14:38:04.475Z,4.55
2022-12-12T14:40:39.351Z,4.40
2022-12-12T14:43:25.616Z,4.68
2022-12-12T14:45:57.994Z,5.03
2022-12-12T14:48:32.521Z,4.95
2022-12-12T14:51:28.962Z,4.95
2022-12-12T14:56:31.217Z,5.30
2022-12-12T14:59:13.326Z,4.47
2022-12-12T15:01:46.186Z,4.93
2022-12-12T15:04:21.372Z,4.60
2022-12-12T15:07:13.472Z,4.53
2022-12-12T15:09:40.549Z,5.47
2022-12-12T15:12:10.266Z,5.50
2022-12-12T15:14:57.559Z,5.60
2022-12-12T15:17:44.038Z,5.57
2022-12-12T15:20:21.696Z,4.85
2022-12-12T15:23:05.493Z,4.95
2022-12-12T15:25:36.039Z,5.53
2022-12-12T15:28:03.183Z,5.78
2022-12-12T15:30:42.718Z,4.93
2022-12-12T15:33:21.507Z,7.03
2022-12-12T15:35:50.522Z,4.68
2022-12-12T15:38:17.085Z,5.35
2022-12-12T15:40:47.569Z,5.28
2022-12-12T15:43:17.409Z,5.45
2022-12-12T15:45:52.030Z,5.13
2022-12-12T15:48:19.728Z,5.65
2022-12-12T15:50:46.248Z,6.00
2022-12-12T15:53:16.463Z,4.85
2022-12-12T15:56:13.811Z,5.80
2022-12-12T15:58:46.778Z,4.85
2022-12-12T16:01:20.269Z,5.60
2022-12-12T16:03:55.636Z,4.50
2022-12-12T16:06:26.786Z,6.18
2022-12-12T16:09:01.004Z,4.60
2022-12-12T16:11:41.672Z,4.43
2022-12-12T16:14:37.099Z,4.28
2022-12-12T16:17:25.822Z,4.18
2022-12-12T16:20:03.205Z,4.82
2022-12-12T16:22:39.875Z,4.47
2022-12-12T16:25:10.992Z,6.13
2022-12-12T16:27:37.683Z,5.68
2022-12-12T16:30:05.443Z,4.80
2022-12-12T16:32:32.040Z,4.60
2022-12-12T16:34:58.622Z,4.32
2022-12-12T16:37:25.208Z,5.25
2022-12-12T16:39:51.832Z,5.30
2022-12-12T16:42:20.828Z,4.90
2022-12-12T16:44:47.665Z,4.88
2022-12-12T16:47:20.801Z,4.75
2022-12-12T16:49:47.710Z,4.60
2022-12-12T16:52:16.088Z,4.50
2022-12-12T16:54:46.896Z,4.13
2022-12-12T16:57:17.889Z,4.57
2022-12-12T16:59:44.539Z,4.38
2022-12-12T17:02:23.303Z,5.32
2022-12-12T17:04:50.726Z,4.90
2022-12-12T17:07:17.439Z,4.57
2022-12-12T17:09:44.246Z,4.97
2022-12-12T17:12:13.068Z,4.75
2022-12-12T17:14:39.907Z,4.65
2022-12-12T17:17:06.779Z,4.47
2022-12-12T17:19:33.427Z,5.05
2022-12-12T17:22:00.700Z,4.70
2022-12-12T17:24:27.859Z,4.25
2022-12-12T17:26:54.544Z,4.32
2022-12-12T17:29:21.461Z,4.40
2022-12-12T17:31:48.197Z,4.68
2022-12-12T17:34:14.789Z,4.70
2022-12-12T17:36:41.393Z,4.15
2022-12-12T17:39:08.025Z,4.00
2022-12-12T17:41:34.596Z,4.47
2022-12-12T17:44:01.297Z,4.55
2022-12-12T17:46:30.034Z,4.68
2022-12-12T17:48:58.432Z,4.90
2022-12-12T17:51:25.879Z,4.70
2022-12-12T17:53:52.908Z,4.47
2022-12-12T17:56:22.735Z,5.18
2022-12-12T17:58:49.848Z,4.90
2022-12-12T18:01:18.256Z,5.00
2022-12-12T18:03:45.730Z,4.63
2022-12-12T18:06:13.828Z,4.70
2022-12-12T18:08:41.345Z,5.15
2022-12-12T18:11:18.535Z,4.93
2022-12-12T18:13:45.828Z,4.57
2022-12-12T18:16:13.224Z,4.97
2022-12-12T18:18:40.773Z,4.65
2022-12-12T18:21:12.928Z,4.30
2022-12-12T18:23:43.005Z,4.43
2022-12-12T18:26:18.570Z,4.57
2022-12-12T18:29:00.642Z,4.65
2022-12-12T18:31:28.342Z,4.78
2022-12-12T18:33:55.246Z,3.83
2022-12-12T18:36:25.256Z,5.00
2022-12-12T18:38:53.527Z,5.30
2022-12-12T18:41:20.167Z,5.28
2022-12-12T18:43:46.838Z,5.70
2022-12-12T18:46:16.990Z,5.65
2022-12-12T18:48:45.398Z,4.55
2022-12-12T18:51:18.898Z,5.13
2022-12-12T18:53:46.771Z,4.68
2022-12-12T18:56:23.995Z,5.82
2022-12-12T18:58:53.162Z,5.60
2022-12-12T19:01:25.881Z,5.55
2022-12-12T19:03:54.098Z,5.07
2022-12-12T19:06:24.802Z,5.63
2022-12-12T19:08:51.983Z,5.43
2022-12-12T19:11:19.921Z,4.78
2022-12-12T19:13:47.337Z,5.13
2022-12-12T19:16:17.001Z,4.18
2022-12-12T19:18:44.197Z,6.05
2022-12-12T19:21:17.247Z,4.25
2022-12-12T19:23:47.705Z,4.47
2022-12-12T19:26:27.140Z,5.70
2022-12-12T19:28:59.382Z,5.57
2022-12-12T19:31:26.341Z,6.43
2022-12-12T19:33:54.208Z,5.40
2022-12-12T19:36:24.610Z,5.15
2022-12-12T19:38:52.254Z,6.03
2022-12-12T19:41:21.930Z,5.55
2022-12-12T19:43:50.263Z,5.82
2022-12-12T19:46:20.122Z,5.68
2022-12-12T19:48:47.940Z,5.95
2022-12-12T19:51:17.451Z,7.25
2022-12-12T19:53:46.659Z,6.07
2022-12-12T19:56:23.652Z,5.30
2022-12-12T19:58:50.576Z,6.57
2022-12-12T20:01:19.911Z,5.68
2022-12-12T20:03:51.193Z,5.47
2022-12-12T20:06:18.836Z,6.30
2022-12-12T20:08:46.155Z,6.38
2022-12-12T20:11:15.418Z,6.18
2022-12-12T20:13:43.181Z,4.80
2022-12-12T20:16:13.003Z,5.80
2022-12-12T20:18:41.624Z,7.70
2022-12-12T20:21:20.464Z,7.85
2022-12-12T20:23:57.433Z,6.40
2022-12-12T20:26:26.568Z,7.10
2022-12-12T20:28:55.058Z,6.82
2022-12-12T20:31:25.295Z,7.43
2022-12-12T20:33:54.958Z,6.78
2022-12-12T20:36:24.526Z,7.75
2022-12-12T20:38:52.155Z,7.30
2022-12-12T20:41:24.468Z,6.70
2022-12-12T20:43:54.443Z,6.70
2022-12-12T20:46:32.909Z,6.68
2022-12-12T20:49:01.975Z,5.25
2022-12-12T20:51:54.775Z,8.10
2022-12-12T20:54:19.977Z,6.05
2022-12-12T20:56:46.815Z,6.35
2022-12-12T20:59:14.705Z,6.28
2022-12-12T21:01:41.668Z,7.10
2022-12-12T21:04:09.619Z,6.55
2022-12-12T21:06:41.110Z,6.68
2022-12-12T21:09:10.610Z,7.50
2022-12-12T21:11:38.625Z,6.57
2022-12-12T21:14:06.717Z,6.75
2022-12-12T21:16:37.084Z,7.22
2022-12-12T21:19:09.908Z,5.57
2022-12-12T21:21:37.955Z,7.45
2022-12-12T21:24:05.213Z,6.60
2022-12-12T21:26:32.981Z,6.05
2022-12-12T21:29:01.893Z,7.38
2022-12-12T21:31:35.985Z,6.78
2022-12-12T21:34:03.436Z,6.13
2022-12-12T21:36:31.520Z,5.53
2022-12-12T21:38:59.965Z,6.22
2022-12-12T21:41:27.180Z,5.60
2022-12-12T21:43:55.739Z,5.95
2022-12-12T21:46:25.478Z,5.80
2022-12-12T21:49:11.581Z,6.32
2022-12-12T21:51:41.886Z,6.03
2022-12-12T21:54:10.470Z,6.00
2022-12-12T21:56:37.483Z,6.28
2022-12-12T21:59:04.050Z,6.80
2022-12-12T22:01:32.455Z,6.90
2022-12-12T22:04:00.392Z,6.28
2022-12-12T22:06:32.526Z,7.45
2022-12-12T22:09:01.244Z,6.30
2022-12-12T22:11:40.037Z,5.47
2022-12-12T22:14:13.644Z,7.15
2022-12-12T22:16:40.276Z,6.22
2022-12-12T22:19:11.066Z,6.65
2022-12-12T22:21:37.706Z,8.10
2022-12-12T22:24:04.785Z,6.57
2022-12-12T22:26:41.194Z,7.43
2022-12-12T22:29:11.713Z,7.05
2022-12-12T22:31:39.787Z,7.35
2022-12-12T22:34:12.722Z,7.80
2022-12-12T22:36:40.322Z,5.95
2022-12-12T22:39:08.799Z,6.60
2022-12-12T22:41:35.382Z,6.68
2022-12-12T22:44:04.025Z,6.78
2022-12-12T22:46:30.845Z,6.65
2022-12-12T22:49:00.322Z,7.57
2022-12-12T22:51:29.829Z,6.97
2022-12-12T22:53:58.370Z,5.88
2022-12-12T22:56:25.544Z,6.15
2022-12-12T22:58:52.187Z,5.88
2022-12-12T23:01:20.787Z,5.88
2022-12-12T23:03:48.153Z,6.32
2022-12-12T23:06:19.276Z,6.45
2022-12-12T23:08:51.743Z,6.18
2022-12-12T23:11:20.274Z,6.60
2022-12-12T23:13:47.251Z,5.93
2022-12-12T23:16:19.556Z,6.25
2022-12-12T23:18:48.103Z,6.20
2022-12-12T23:21:17.702Z,7.03
2022-12-12T23:23:45.811Z,6.78
2022-12-12T23:26:15.270Z,6.78
2022-12-12T23:28:43.104Z,6.55
2022-12-12T23:31:12.221Z,6.00
2022-12-12T23:33:39.338Z,6.35
2022-12-12T23:36:11.079Z,6.53
2022-12-12T23:38:38.228Z,4.57
2022-12-12T23:41:06.893Z,6.88
2022-12-12T23:43:34.166Z,6.68
2022-12-12T23:46:03.260Z,6.38
2022-12-12T23:48:30.985Z,6.85
2022-12-12T23:50:58.351Z,7.65
2022-12-12T23:53:26.450Z,6.20
2022-12-12T23:55:53.627Z,6.90
2022-12-12T23:58:20.174Z,5.93
